地図

経路データ

SID SEASON NUMBER BASIN SUBBASIN NAME ISO_TIME NATURE LAT LON WMO_WIND WMO_PRES WMO_AGENCY TRACK_TYPE DIST2LAND LANDFALL IFLAG USA_AGENCY USA_ATCF_ID USA_LAT USA_LON USA_RECORD USA_STATUS USA_WIND USA_PRES USA_SSHS USA_R34_NE USA_R34_SE USA_R34_SW USA_R34_NW USA_R50_NE USA_R50_SE USA_R50_SW USA_R50_NW USA_R64_NE USA_R64_SE USA_R64_SW USA_R64_NW USA_POCI USA_ROCI USA_RMW USA_EYE TOKYO_LAT TOKYO_LON TOKYO_GRADE TOKYO_WIND TOKYO_PRES TOKYO_R50_DIR TOKYO_R50_LONG TOKYO_R50_SHORT TOKYO_R30_DIR TOKYO_R30_LONG TOKYO_R30_SHORT TOKYO_LAND CMA_LAT CMA_LON CMA_CAT CMA_WIND CMA_PRES HKO_LAT HKO_LON HKO_CAT HKO_WIND HKO_PRES NEWDELHI_LAT NEWDELHI_LON NEWDELHI_GRADE NEWDELHI_WIND NEWDELHI_PRES NEWDELHI_CI NEWDELHI_DP NEWDELHI_POCI REUNION_LAT REUNION_LON REUNION_TYPE REUNION_WIND REUNION_PRES REUNION_TNUM REUNION_CI REUNION_RMW REUNION_R34_NE REUNION_R34_SE REUNION_R34_SW REUNION_R34_NW REUNION_R50_NE REUNION_R50_SE REUNION_R50_SW REUNION_R50_NW REUNION_R64_NE REUNION_R64_SE REUNION_R64_SW REUNION_R64_NW BOM_LAT BOM_LON BOM_TYPE BOM_WIND BOM_PRES BOM_TNUM BOM_CI BOM_RMW BOM_R34_NE BOM_R34_SE BOM_R34_SW BOM_R34_NW BOM_R50_NE BOM_R50_SE BOM_R50_SW BOM_R50_NW BOM_R64_NE BOM_R64_SE BOM_R64_SW BOM_R64_NW BOM_ROCI BOM_POCI BOM_EYE BOM_POS_METHOD BOM_PRES_METHOD NADI_LAT NADI_LON NADI_CAT NADI_WIND NADI_PRES WELLINGTON_LAT WELLINGTON_LON WELLINGTON_WIND WELLINGTON_PRES DS824_LAT DS824_LON DS824_STAGE DS824_WIND DS824_PRES TD9636_LAT TD9636_LON TD9636_STAGE TD9636_WIND TD9636_PRES TD9635_LAT TD9635_LON TD9635_WIND TD9635_PRES TD9635_ROCI NEUMANN_LAT NEUMANN_LON NEUMANN_CLASS NEUMANN_WIND NEUMANN_PRES MLC_LAT MLC_LON MLC_CLASS MLC_WIND MLC_PRES USA_GUST BOM_GUST BOM_GUST_PER REUNION_GUST REUNION_GUST_PER USA_SEAHGT USA_SEARAD_NE USA_SEARAD_SE USA_SEARAD_SW USA_SEARAD_NW STORM_SPEED STORM_DIR
1939206N25142 1939 38 WP MM NOT_NAMED 1939-07-24 21:00:00 NR 24.8000 141.900 main 1127 1083 __________O___ -1 24.8000 141.900 2 13 281
1939206N25142 1939 38 WP MM NOT_NAMED 1939-07-25 00:00:00 NR 24.9195 141.196 main 1083 1042 __________P___ -1 24.9195 141.196 2 13 279
1939206N25142 1939 38 WP MM NOT_NAMED 1939-07-25 03:00:00 NR 25.0098 140.493 main 1042 1014 __________P___ -1 25.0098 140.493 2 13 276
1939206N25142 1939 38 WP MM NOT_NAMED 1939-07-25 06:00:00 NR 25.0453 139.793 main 1014 990 __________P___ -1 25.0453 139.793 2 13 270
1939206N25142 1939 38 WP MM NOT_NAMED 1939-07-25 09:00:00 NR 25.0000 139.100 main 990 981 __________O___ -1 25.0000 139.100 2 13 262
1939206N25142 1939 38 WP MM NOT_NAMED 1939-07-25 12:00:00 NR 24.8593 138.419 main 981 975 __________P___ -1 24.8593 138.419 2 13 254
1939206N25142 1939 38 WP MM NOT_NAMED 1939-07-25 15:00:00 NR 24.6522 137.765 main 975 963 __________P___ -1 24.6522 137.765 2 12 249
1939206N25142 1939 38 WP MM NOT_NAMED 1939-07-25 18:00:00 NR 24.4189 137.154 main 966 947 __________P___ -1 24.4189 137.154 2 12 247
1939206N25142 1939 38 WP MM NOT_NAMED 1939-07-25 21:00:00 NR 24.2000 136.600 main 952 941 __________O___ -1 24.2000 136.600 2 10 248
1939206N25142 1939 38 WP MM NOT_NAMED 1939-07-26 00:00:00 NR 24.0398 136.126 main 945 933 __________P___ -1 24.0398 136.126 2 9 250
1939206N25142 1939 38 WP MM NOT_NAMED 1939-07-26 03:00:00 NR 23.9031 135.706 main 933 922 __________P___ -1 23.9031 135.706 2 8 252
1939206N25142 1939 38 WP MM NOT_NAMED 1939-07-26 06:00:00 NR 23.7900 135.307 main 922 913 __________P___ -1 23.7900 135.307 2 8 255
1939206N25142 1939 38 WP MM NOT_NAMED 1939-07-26 09:00:00 NR 23.7000 134.900 main 914 901 __________O___ -1 23.7000 134.900 2 8 258
1939206N25142 1939 38 WP MM NOT_NAMED 1939-07-26 12:00:00 NR 23.6388 134.501 main 907 891 __________P___ -1 23.6388 134.501 2 8 262
1939206N25142 1939 38 WP MM NOT_NAMED 1939-07-26 15:00:00 NR 23.5970 134.079 main 891 874 __________P___ -1 23.5970 134.079 2 8 264
1939206N25142 1939 38 WP MM NOT_NAMED 1939-07-26 18:00:00 NR 23.5569 133.592 main 874 867 __________P___ -1 23.5569 133.592 2 10 264
1939206N25142 1939 38 WP MM NOT_NAMED 1939-07-26 21:00:00 NR 23.5000 133.000 main 867 858 __________O___ -1 23.5000 133.000 2 13 263
1939206N25142 1939 38 WP MM NOT_NAMED 1939-07-27 00:00:00 NR 23.4049 132.147 main 859 854 __________P___ -1 23.4049 132.147 2 17 263
1939206N25142 1939 38 WP MM NOT_NAMED 1939-07-27 03:00:00 NR 23.2861 131.208 main 861 860 __________P___ -1 23.2861 131.208 2 17 261
1939206N25142 1939 38 WP MM NOT_NAMED 1939-07-27 06:00:00 NR 23.1485 130.316 main 868 800 __________P___ -1 23.1485 130.316 2 15 259
1939206N25142 1939 38 WP MM NOT_NAMED 1939-07-27 09:00:00 NR 23.0000 129.600 main 800 763 __________O___ -1 23.0000 129.600 2 11 254
1939206N25142 1939 38 WP MM NOT_NAMED 1939-07-27 12:00:00 NR 22.8339 129.138 main 757 740 __________P___ -1 22.8339 129.138 2 7 243
1939206N25142 1939 38 WP MM NOT_NAMED 1939-07-27 15:00:00 NR 22.6664 128.876 main 740 734 __________P___ -1 22.6664 128.876 2 4 224
1939206N25142 1939 38 WP MM NOT_NAMED 1939-07-27 18:00:00 NR 22.5158 128.801 main 737 737 __________P___ -1 22.5158 128.801 2 3 0
1939206N25142 1939 38 WP MM NOT_NAMED 1939-07-27 21:00:00 NR 22.4000 128.900 main 751 751 __________O___ -1 22.4000 128.900 2 3 123
1939206N25142 1939 38 WP MM NOT_NAMED 1939-07-28 00:00:00 NR 22.3348 129.103 main 774 774 __________P___ -1 22.3348 129.103 2 5 100
1939206N25142 1939 38 WP MM NOT_NAMED 1939-07-28 03:00:00 NR 22.3047 129.468 main 813 813 __________P___ -1 22.3047 129.468 2 8 93
1939206N25142 1939 38 WP MM NOT_NAMED 1939-07-28 06:00:00 NR 22.2972 129.949 main 852 852 __________P___ -1 22.2972 129.949 2 10 90
1939206N25142 1939 38 WP MM NOT_NAMED 1939-07-28 09:00:00 NR 22.3000 130.500 main 910 910 __________O___ -1 22.3000 130.500 2 10 90
1939206N25142 1939 38 WP MM NOT_NAMED 1939-07-28 12:00:00 NR 22.2894 131.059 main 969 969 __________P___ -1 22.2894 131.059 2 11 91
1939206N25142 1939 38 WP MM NOT_NAMED 1939-07-28 15:00:00 NR 22.2859 131.670 main 976 976 __________P___ -1 22.2859 131.670 2 11 90
1939206N25142 1939 38 WP MM NOT_NAMED 1939-07-28 18:00:00 NR 22.2893 132.296 main 984 984 __________P___ -1 22.2893 132.296 2 11 89
1939206N25142 1939 38 WP MM NOT_NAMED 1939-07-28 21:00:00 NR 22.3000 132.900 main 995 995 __________O___ -1 22.3000 132.900 2 9 86
1939206N25142 1939 38 WP MM NOT_NAMED 1939-07-29 00:00:00 NR 22.3496 133.306 main 1005 994 __________P___ -1 22.3496 133.306 2 8 82
1939206N25142 1939 38 WP MM NOT_NAMED 1939-07-29 03:00:00 NR 22.4024 133.703 main 1005 1005 __________P___ -1 22.4024 133.703 2 8 84
1939206N25142 1939 38 WP MM NOT_NAMED 1939-07-29 06:00:00 NR 22.4293 134.199 main 1021 1021 __________P___ -1 22.4293 134.199 2 11 90
1939206N25142 1939 38 WP MM NOT_NAMED 1939-07-29 09:00:00 NR 22.4000 134.900 main 1046 1046 __________O___ -1 22.4000 134.900 2 17 96
1939206N25142 1939 38 WP MM NOT_NAMED 1939-07-29 12:00:00 NR 22.2443 136.040 main 1114 1114 __________P___ -1 22.2443 136.040 2 23 99
1939206N25142 1939 38 WP MM NOT_NAMED 1939-07-29 15:00:00 NR 22.0265 137.369 main 1205 1205 __________P___ -1 22.0265 137.369 2 25 100
1939206N25142 1939 38 WP MM NOT_NAMED 1939-07-29 18:00:00 NR 21.7941 138.712 main 1293 1293 __________P___ -1 21.7941 138.712 2 24 100
1939206N25142 1939 38 WP MM NOT_NAMED 1939-07-29 21:00:00 NR 21.6000 139.900 main 1377 1377 __________O___ -1 21.6000 139.900 2 19 99
1939206N25142 1939 38 WP MM NOT_NAMED 1939-07-30 00:00:00 NR 21.4955 140.727 main 1413 1413 __________P___ -1 21.4955 140.727 2 14 96
1939206N25142 1939 38 WP MM NOT_NAMED 1939-07-30 03:00:00 NR 21.4468 141.380 main 1448 1448 __________P___ -1 21.4468 141.380 2 11 92
1939206N25142 1939 38 WP MM NOT_NAMED 1939-07-30 06:00:00 NR 21.4501 141.918 main 1457 1457 __________P___ -1 21.4501 141.918 2 10 87
1939206N25142 1939 38 WP MM NOT_NAMED 1939-07-30 09:00:00 NR 21.5000 142.400 main 1478 1478 __________O___ -1 21.5000 142.400 2 9 82
1939206N25142 1939 38 WP MM NOT_NAMED 1939-07-30 12:00:00 NR 21.5891 142.925 main 1490 1490 __________P___ -1 21.5891 142.925 2 10 77
1939206N25142 1939 38 WP MM NOT_NAMED 1939-07-30 15:00:00 NR 21.7189 143.409 main 1504 1499 __________P___ -1 21.7189 143.409 2 9 72
1939206N25142 1939 38 WP MM NOT_NAMED 1939-07-30 18:00:00 NR 21.8643 143.863 main 1502 1496 __________P___ -1 21.8643 143.863 2 9 71
1939206N25142 1939 38 WP MM NOT_NAMED 1939-07-30 21:00:00 NR 22.0000 144.300 main 1502 1500 __________O___ -1 22.0000 144.300 2 8 76
1939206N25142 1939 38 WP MM NOT_NAMED 1939-07-31 00:00:00 NR 22.0725 144.732 main 1503 1503 __________P___ -1 22.0725 144.732 2 8 80
1939206N25142 1939 38 WP MM NOT_NAMED 1939-07-31 03:00:00 NR 22.1341 145.151 main 1518 1511 __________P___ -1 22.1341 145.151 2 8 80
1939206N25142 1939 38 WP MM NOT_NAMED 1939-07-31 06:00:00 NR 22.2037 145.570 main 1522 1518 __________P___ -1 22.2037 145.570 2 8 78
1939206N25142 1939 38 WP MM NOT_NAMED 1939-07-31 09:00:00 NR 22.3000 146.000 main 1526 1523 __________O___ -1 22.3000 146.000 2 8 75
1939206N25142 1939 38 WP MM NOT_NAMED 1939-07-31 12:00:00 NR 22.4253 146.441 main 1531 1525 __________P___ -1 22.4253 146.441 2 9 71
1939206N25142 1939 38 WP MM NOT_NAMED 1939-07-31 15:00:00 NR 22.5815 146.899 main 1531 1530 __________P___ -1 22.5815 146.899 2 9 68
1939206N25142 1939 38 WP MM NOT_NAMED 1939-07-31 18:00:00 NR 22.7720 147.382 main 1533 1532 __________P___ -1 22.7720 147.382 2 10 66
1939206N25142 1939 38 WP MM NOT_NAMED 1939-07-31 21:00:00 NR 23.0000 147.900 main 1537 1528 __________O___ -1 23.0000 147.900 2 11 60
1939206N25142 1939 38 WP MM NOT_NAMED 1939-08-01 00:00:00 NR 23.3141 148.382 main 1533 1523 __________P___ -1 23.3141 148.382 2 11 55
1939206N25142 1939 38 WP MM NOT_NAMED 1939-08-01 03:00:00 NR 23.6554 148.911 main 1522 1522 __________P___ -1 23.6554 148.911 2 12 58
1939206N25142 1939 38 WP MM NOT_NAMED 1939-08-01 06:00:00 NR 23.9691 149.534 main 1526 1526 __________P___ -1 23.9691 149.534 2 14 67
1939206N25142 1939 38 WP MM NOT_NAMED 1939-08-01 09:00:00 NR 24.2000 150.300 main 1553 1553 __________O___ -1 24.2000 150.300 2 17 80
1939206N25142 1939 38 WP MM NOT_NAMED 1939-08-01 12:00:00 NR 24.2713 151.385 main 1611 1611 __________P___ -1 24.2713 151.385 2 21 89
1939206N25142 1939 38 WP MM NOT_NAMED 1939-08-01 15:00:00 NR 24.2499 152.586 main 1697 1697 __________P___ -1 24.2499 152.586 2 22 92
1939206N25142 1939 38 WP MM NOT_NAMED 1939-08-01 18:00:00 NR 24.1774 153.744 main 1772 1772 __________P___ -1 24.1774 153.744 2 19 94
1939206N25142 1939 38 WP MM NOT_NAMED 1939-08-01 21:00:00 NR 24.1000 154.700 main 1850 1850 __________O___ -1 24.1000 154.700 2 15 93
1939206N25142 1939 38 WP MM NOT_NAMED 1939-08-02 00:00:00 NR 24.1127 155.341 main 1892 1892 __________P___ -1 24.1127 155.341 2 10 88
1939206N25142 1939 38 WP MM NOT_NAMED 1939-08-02 03:00:00 NR 24.1323 155.754 main 1927 1927 __________P___ -1 24.1323 155.754 2 6 88
1939206N25142 1939 38 WP MM NOT_NAMED 1939-08-02 06:00:00 NR 24.1360 155.966 main 1941 1941 __________P___ -1 24.1360 155.966 2 2 98
1939206N25142 1939 38 WP MM NOT_NAMED 1939-08-02 09:00:00 NR 24.1000 156.000 main 1941 1941 __________O___ -1 24.1000 156.000 2 2 186
1939206N25142 1939 38 WP MM NOT_NAMED 1939-08-02 12:00:00 NR 23.9354 155.959 main 1957 1950 __________P___ -1 23.9354 155.959 2 4 212
1939206N25142 1939 38 WP MM NOT_NAMED 1939-08-02 15:00:00 NR 23.7389 155.753 main 1959 1940 __________P___ -1 23.7389 155.753 2 6 234
1939206N25142 1939 38 WP MM NOT_NAMED 1939-08-02 18:00:00 NR 23.5730 155.421 main 1940 1919 __________P___ -1 23.5730 155.421 2 7 251
1939206N25142 1939 38 WP MM NOT_NAMED 1939-08-02 21:00:00 NR 23.5000 155.000 main 1919 1891 __________O___ -1 23.5000 155.000 2 7 266
1939206N25142 1939 38 WP MM NOT_NAMED 1939-08-03 00:00:00 NR 23.5166 154.623 main 1891 1855 __________P___ -1 23.5166 154.623 2 8 280
1939206N25142 1939 38 WP MM NOT_NAMED 1939-08-03 03:00:00 NR 23.6423 154.161 main 1855 1790 __________P___ -1 23.6423 154.161 2 10 292
1939206N25142 1939 38 WP MM NOT_NAMED 1939-08-03 06:00:00 NR 23.8969 153.593 main 1790 1709 __________P___ -1 23.8969 153.593 2 13 300
1939206N25142 1939 38 WP MM NOT_NAMED 1939-08-03 09:00:00 NR 24.3000 152.900 main 1709 1598 __________O___ -1 24.3000 152.900 2 18 305
1939206N25142 1939 38 WP MM NOT_NAMED 1939-08-03 12:00:00 NR 24.9384 151.972 main 1598 1465 __________P___ -1 24.9384 151.972 2 23 308
1939206N25142 1939 38 WP MM NOT_NAMED 1939-08-03 15:00:00 NR 25.7001 150.928 main 1458 1334 __________P___ -1 25.7001 150.928 2 24 309
1939206N25142 1939 38 WP MM NOT_NAMED 1939-08-03 18:00:00 NR 26.4608 149.893 main 1326 1217 __________P___ -1 26.4608 149.893 2 22 309
1939206N25142 1939 38 WP MM NOT_NAMED 1939-08-03 21:00:00 NR 27.1000 149.000 main 1217 1159 __________O___ -1 27.1000 149.000 2 16 306
1939206N25142 1939 38 WP MM NOT_NAMED 1939-08-04 00:00:00 NR 27.4084 148.431 main 1153 1111 __________P___ -1 27.4084 148.431 2 10 300
1939206N25142 1939 38 WP MM NOT_NAMED 1939-08-04 03:00:00 NR 27.5972 148.025 main 1111 1075 __________P___ -1 27.5972 148.025 2 7 299
1939206N25142 1939 38 WP MM NOT_NAMED 1939-08-04 06:00:00 NR 27.7627 147.707 main 1075 1040 __________P___ -1 27.7627 147.707 2 7 306
1939206N25142 1939 38 WP MM NOT_NAMED 1939-08-04 09:00:00 NR 28.0000 147.400 main 1040 980 __________O___ -1 28.0000 147.400 2 10 317
1939206N25142 1939 38 WP MM NOT_NAMED 1939-08-04 12:00:00 NR 28.4630 146.976 main 971 904 __________P___ -1 28.4630 146.976 2 13 323
1939206N25142 1939 38 WP MM NOT_NAMED 1939-08-04 15:00:00 NR 29.0049 146.545 main 898 830 __________P___ -1 29.0049 146.545 2 13 326
1939206N25142 1939 38 WP MM NOT_NAMED 1939-08-04 18:00:00 NR 29.5693 146.116 main 821 753 __________P___ -1 29.5693 146.116 2 13 326
1939206N25142 1939 38 WP MM NOT_NAMED 1939-08-04 21:00:00 NR 30.1000 145.700 main 753 695 __________O___ -1 30.1000 145.700 2 12 325
1939206N25142 1939 38 WP MM NOT_NAMED 1939-08-05 00:00:00 NR 30.5580 145.318 main 686 642 __________P___ -1 30.5580 145.318 2 11 323
1939206N25142 1939 38 WP MM NOT_NAMED 1939-08-05 03:00:00 NR 30.9689 144.949 main 627 583 __________P___ -1 30.9689 144.949 2 10 320
1939206N25142 1939 38 WP MM NOT_NAMED 1939-08-05 06:00:00 NR 31.3205 144.581 main 583 533 __________P___ -1 31.3205 144.581 2 9 315
1939206N25142 1939 38 WP MM NOT_NAMED 1939-08-05 09:00:00 NR 31.6000 144.200 main 533 492 __________O___ -1 31.6000 144.200 2 8 306
1939206N25142 1939 38 WP MM NOT_NAMED 1939-08-05 12:00:00 NR 31.8003 143.797 main 492 460 __________P___ -1 31.8003 143.797 2 8 296
1939206N25142 1939 38 WP MM NOT_NAMED 1939-08-05 15:00:00 NR 31.9366 143.375 main 460 430 __________P___ -1 31.9366 143.375 2 8 288
1939206N25142 1939 38 WP MM NOT_NAMED 1939-08-05 18:00:00 NR 32.0295 142.941 main 425 394 __________P___ -1 32.0295 142.941 2 8 282
1939206N25142 1939 38 WP MM NOT_NAMED 1939-08-05 21:00:00 NR 32.1000 142.500 main 394 __________O___ -1 32.1000 142.500 2 8 281

デジタル台風データ・検索

IBTrACS Databaseについて

本データベースは、米国NOAAが公開する1842年以降の世界の熱帯低気圧のベストトラックデータアーカイブInternational Best Track Archive for Climate Stewardship (IBTrACS)を、ウェブで閲覧しやすい形式に変換したものです。

最終更新日:2021-11-26